Time;durP1;ratioP1;P1;durP2;ratioP2;P2;SDS_P1;SDS_P2;PMS_P1;PMS_P2;Temp;Humidity;BMP_temperature;BMP_pressure;BME280_temperature;BME280_humidity;BME280_pressure;Samples;Min_cycle;Max_cycle;Signal;HPM_P1;HPM_P2
2023/09/24 00:01:26;;;;;;;6.00;3.67;;;;;;;;;;5010134;28;20952;-49
2023/09/24 00:03:52;;;;;;;3.70;3.30;;;;;;;;;;5009253;28;20297;-51
2023/09/24 00:06:19;;;;;;;7.67;3.83;;;;;;;;;;5007469;28;20190;-47
2023/09/24 00:08:45;;;;;;;4.27;3.87;;;;;;;;;;5009853;28;20189;-48
2023/09/24 00:11:11;;;;;;;4.57;3.63;;;;;;;;;;5009816;28;20188;-46
2023/09/24 00:13:38;;;;;;;6.80;4.27;;;;;;;;;;5009667;28;20194;-49
2023/09/24 00:16:09;;;;;;;4.90;3.30;;;;;;;;;;4991915;28;20625;-47
2023/09/24 00:18:37;;;;;;;3.93;3.53;;;;;;;;;;5010191;28;20269;-48
2023/09/24 00:21:04;;;;;;;4.50;3.70;;;;;;;;;;4988801;28;21262;-49
2023/09/24 00:23:30;;;;;;;6.30;4.67;;;;;;;;;;5010787;28;20198;-47
2023/09/24 00:25:57;;;;;;;4.37;3.80;;;;;;;;;;5003097;28;20183;-47
2023/09/24 00:28:24;;;;;;;6.00;3.93;;;;;;;;;;5009936;28;20619;-48
2023/09/24 00:30:51;;;;;;;5.47;4.17;;;;;;;;;;5007934;28;20254;-48
2023/09/24 00:33:18;;;;;;;4.30;3.73;;;;;;;;;;5008659;28;20190;-46
2023/09/24 00:35:44;;;;;;;5.13;4.40;;;;;;;;;;5008327;28;20277;-47
2023/09/24 00:38:10;;;;;;;4.30;3.90;;;;;;;;;;5009343;28;20187;-48
2023/09/24 00:40:36;;;;;;;4.30;3.83;;;;;;;;;;5008759;28;20248;-48
2023/09/24 00:43:03;;;;;;;4.30;3.90;;;;;;;;;;5008507;28;20210;-49
2023/09/24 00:45:29;;;;;;;5.17;3.70;;;;;;;;;;5009217;28;20198;-48
2023/09/24 00:47:56;;;;;;;4.70;4.30;;;;;;;;;;5007836;28;20183;-47
2023/09/24 00:50:24;;;;;;;4.63;3.73;;;;;;;;;;5007612;28;20228;-47
2023/09/24 00:52:50;;;;;;;5.53;3.60;;;;;;;;;;5010500;28;20619;-48
2023/09/24 00:55:17;;;;;;;4.07;3.73;;;;;;;;;;4991777;28;20180;-48
2023/09/24 00:57:43;;;;;;;5.10;3.80;;;;;;;;;;5007253;28;20225;-49
2023/09/24 01:00:13;;;;;;;4.27;3.87;;;;;;;;;;5007886;28;20193;-48
2023/09/24 01:02:40;;;;;;;7.33;5.03;;;;;;;;;;5007586;28;20202;-48
2023/09/24 01:05:10;;;;;;;6.10;3.87;;;;;;;;;;5007074;28;20187;-47
2023/09/24 01:07:37;;;;;;;8.77;4.80;;;;;;;;;;5008937;28;20266;-48
2023/09/24 01:10:04;;;;;;;4.33;4.03;;;;;;;;;;5007218;28;20257;-46
2023/09/24 01:12:30;;;;;;;5.03;4.37;;;;;;;;;;5001588;28;20187;-50
2023/09/24 01:15:00;;;;;;;4.47;4.00;;;;;;;;;;5004515;28;20182;-54
2023/09/24 01:17:27;;;;;;;4.70;4.20;;;;;;;;;;5007995;28;20193;-53
2023/09/24 01:19:56;;;;;;;5.80;4.30;;;;;;;;;;5006727;28;20757;-52
2023/09/24 01:22:23;;;;;;;5.17;4.10;;;;;;;;;;5008341;28;20217;-51
2023/09/24 01:24:50;;;;;;;4.57;3.47;;;;;;;;;;5008585;28;20179;-52
2023/09/24 01:27:16;;;;;;;7.17;4.40;;;;;;;;;;5007829;28;20708;-52
2023/09/24 01:29:43;;;;;;;4.17;3.87;;;;;;;;;;4987266;28;20221;-52
2023/09/24 01:32:11;;;;;;;5.73;5.20;;;;;;;;;;5007638;28;20269;-51
2023/09/24 01:34:38;;;;;;;5.23;4.77;;;;;;;;;;5006612;28;20241;-52
2023/09/24 01:37:08;;;;;;;4.70;4.20;;;;;;;;;;5007123;28;20186;-53
2023/09/24 01:39:36;;;;;;;4.40;4.10;;;;;;;;;;5007949;28;20190;-53
2023/09/24 01:42:07;;;;;;;6.57;4.33;;;;;;;;;;5006904;28;20199;-52
2023/09/24 01:44:34;;;;;;;4.50;4.10;;;;;;;;;;5007710;28;20189;-52
2023/09/24 01:47:03;;;;;;;6.03;4.20;;;;;;;;;;5007401;28;20183;-52
2023/09/24 01:49:31;;;;;;;9.70;4.60;;;;;;;;;;5001786;28;20191;-52
2023/09/24 01:51:58;;;;;;;4.50;4.10;;;;;;;;;;5007960;28;20274;-52
2023/09/24 01:54:25;;;;;;;6.27;4.70;;;;;;;;;;5006777;28;20194;-51
2023/09/24 01:56:54;;;;;;;5.27;4.77;;;;;;;;;;5007205;28;20206;-51
2023/09/24 01:59:20;;;;;;;6.50;4.27;;;;;;;;;;5006635;28;20198;-51
2023/09/24 02:01:47;;;;;;;5.83;4.30;;;;;;;;;;5006100;28;20186;-52
2023/09/24 02:04:14;;;;;;;8.10;4.60;;;;;;;;;;5005799;28;20236;-53
2023/09/24 02:06:41;;;;;;;5.70;4.60;;;;;;;;;;5007427;28;20219;-52
2023/09/24 02:09:08;;;;;;;7.83;4.60;;;;;;;;;;5008083;28;20269;-52
2023/09/24 02:11:34;;;;;;;5.30;4.60;;;;;;;;;;5003564;28;20183;-52
2023/09/24 02:14:00;;;;;;;8.47;5.03;;;;;;;;;;5008029;28;20240;-52
2023/09/24 02:16:26;;;;;;;6.37;4.90;;;;;;;;;;5006926;28;20187;-52
2023/09/24 02:18:52;;;;;;;4.93;4.47;;;;;;;;;;5006639;28;20194;-51
2023/09/24 02:21:19;;;;;;;5.10;4.60;;;;;;;;;;5004835;28;20236;-53
2023/09/24 02:23:45;;;;;;;5.30;4.90;;;;;;;;;;5004903;28;20210;-56
2023/09/24 02:26:13;;;;;;;5.97;4.50;;;;;;;;;;5007840;28;20182;-51
2023/09/24 02:28:39;;;;;;;6.30;5.17;;;;;;;;;;5008376;28;20203;-51
2023/09/24 02:31:12;;;;;;;6.20;4.30;;;;;;;;;;5006109;28;20232;-52
2023/09/24 02:33:39;;;;;;;6.80;4.43;;;;;;;;;;5008113;28;20241;-52
2023/09/24 02:36:07;;;;;;;5.83;5.20;;;;;;;;;;5006346;28;20281;-52
2023/09/24 02:38:34;;;;;;;5.00;4.30;;;;;;;;;;5007493;28;20602;-53
2023/09/24 02:41:00;;;;;;;5.27;4.77;;;;;;;;;;5007142;28;20268;-52
2023/09/24 02:43:29;;;;;;;5.73;4.30;;;;;;;;;;5007597;28;20221;-52
2023/09/24 02:45:56;;;;;;;4.90;3.97;;;;;;;;;;4988792;28;20190;-52
2023/09/24 02:48:22;;;;;;;5.37;4.70;;;;;;;;;;5006933;28;20179;-51
2023/09/24 02:50:49;;;;;;;4.33;4.03;;;;;;;;;;4988042;28;20274;-52
2023/09/24 02:53:15;;;;;;;5.53;4.83;;;;;;;;;;5007721;28;20190;-52
2023/09/24 02:55:42;;;;;;;4.70;4.30;;;;;;;;;;5006923;28;20599;-51
2023/09/24 02:58:08;;;;;;;4.57;4.17;;;;;;;;;;4988444;28;20524;-53
2023/09/24 03:00:36;;;;;;;5.57;5.07;;;;;;;;;;5004372;28;20182;-52
2023/09/24 03:03:05;;;;;;;7.17;4.20;;;;;;;;;;5009597;28;20202;-52
2023/09/24 03:05:31;;;;;;;4.60;3.90;;;;;;;;;;5008456;28;20187;-53
2023/09/24 03:08:02;;;;;;;5.07;4.07;;;;;;;;;;5012236;28;20265;-52
2023/09/24 03:10:30;;;;;;;4.17;3.87;;;;;;;;;;4992523;28;20190;-52
2023/09/24 03:12:57;;;;;;;4.50;4.10;;;;;;;;;;5010895;28;20269;-52
2023/09/24 03:15:24;;;;;;;4.90;4.40;;;;;;;;;;5010280;28;20646;-52
2023/09/24 03:17:51;;;;;;;6.83;4.20;;;;;;;;;;5011164;28;20222;-52
2023/09/24 03:20:18;;;;;;;4.93;4.43;;;;;;;;;;5008710;28;20283;-52
2023/09/24 03:22:49;;;;;;;9.80;5.20;;;;;;;;;;5010957;28;20213;-52
2023/09/24 03:25:17;;;;;;;7.30;3.83;;;;;;;;;;5010934;28;20174;-52
2023/09/24 03:27:44;;;;;;;5.23;4.00;;;;;;;;;;5009890;28;20187;-52
2023/09/24 03:30:13;;;;;;;4.97;4.10;;;;;;;;;;5010051;28;20665;-52
2023/09/24 03:32:42;;;;;;;6.57;4.60;;;;;;;;;;5010704;28;20268;-52
2023/09/24 03:35:09;;;;;;;6.00;4.80;;;;;;;;;;5009250;28;20186;-51
2023/09/24 03:37:40;;;;;;;6.00;3.97;;;;;;;;;;5011206;28;20688;-51
2023/09/24 03:40:27;;;;;;;16.83;5.70;;;;;;;;;;5010211;28;20555;-52
2023/09/24 03:42:54;;;;;;;3.80;3.27;;;;;;;;;;5010256;28;20202;-52
2023/09/24 03:45:23;;;;;;;4.10;3.70;;;;;;;;;;4992541;28;20189;-51
2023/09/24 03:47:51;;;;;;;6.07;4.20;;;;;;;;;;5010447;28;20182;-51
2023/09/24 03:50:18;;;;;;;4.60;4.03;;;;;;;;;;5008227;28;20241;-52
2023/09/24 03:52:45;;;;;;;5.17;4.17;;;;;;;;;;5010815;28;20270;-51
2023/09/24 03:55:12;;;;;;;5.83;5.07;;;;;;;;;;5009511;28;20300;-52
2023/09/24 03:57:39;;;;;;;4.67;4.13;;;;;;;;;;5009754;28;20186;-47
2023/09/24 04:00:25;;;;;;;5.17;4.13;;;;;;;;;;5010156;28;20587;-46
2023/09/24 04:02:51;;;;;;;6.07;3.77;;;;;;;;;;5009326;28;20295;-48
2023/09/24 04:05:19;;;;;;;5.03;4.73;;;;;;;;;;5003784;28;20191;-47
2023/09/24 04:07:50;;;;;;;6.47;4.27;;;;;;;;;;5010261;28;20618;-46
2023/09/24 04:10:16;;;;;;;4.73;4.23;;;;;;;;;;4991525;28;20248;-47
2023/09/24 04:12:43;;;;;;;4.80;4.40;;;;;;;;;;4990062;28;20182;-46
2023/09/24 04:15:10;;;;;;;4.80;4.40;;;;;;;;;;5009753;28;20228;-47
2023/09/24 04:17:36;;;;;;;5.83;4.47;;;;;;;;;;5010023;28;20714;-48
2023/09/24 04:20:03;;;;;;;4.87;3.67;;;;;;;;;;5007944;28;20237;-46
2023/09/24 04:22:30;;;;;;;4.60;4.07;;;;;;;;;;5008930;28;20210;-45
2023/09/24 04:24:56;;;;;;;5.30;4.17;;;;;;;;;;5009534;28;20185;-47
2023/09/24 04:27:22;;;;;;;5.43;4.80;;;;;;;;;;5009055;28;20599;-48
2023/09/24 04:29:48;;;;;;;7.30;4.40;;;;;;;;;;4989485;28;20245;-46
2023/09/24 04:32:15;;;;;;;7.50;4.03;;;;;;;;;;5009780;28;20277;-48
2023/09/24 04:34:42;;;;;;;4.87;4.13;;;;;;;;;;5008134;28;20202;-49
2023/09/24 04:37:10;;;;;;;8.50;6.03;;;;;;;;;;4990360;28;20559;-48
2023/09/24 04:39:36;;;;;;;7.47;5.10;;;;;;;;;;5004335;28;20654;-46
2023/09/24 04:42:02;;;;;;;5.13;4.60;;;;;;;;;;5009919;28;20179;-50
2023/09/24 04:44:29;;;;;;;4.77;4.07;;;;;;;;;;5008628;28;20308;-48
2023/09/24 04:46:55;;;;;;;4.53;4.13;;;;;;;;;;5007495;28;20209;-49
2023/09/24 04:49:22;;;;;;;8.03;4.43;;;;;;;;;;5005346;28;20587;-48
2023/09/24 04:51:50;;;;;;;5.33;4.17;;;;;;;;;;5010307;28;20194;-50
2023/09/24 04:54:16;;;;;;;6.33;4.23;;;;;;;;;;4982318;28;20187;-48
2023/09/24 04:56:42;;;;;;;4.60;4.20;;;;;;;;;;5009585;28;20187;-49
2023/09/24 04:59:10;;;;;;;6.90;4.17;;;;;;;;;;4990685;28;20178;-52
2023/09/24 05:01:36;;;;;;;5.97;4.50;;;;;;;;;;5009728;28;20513;-54
2023/09/24 05:04:03;;;;;;;4.83;4.43;;;;;;;;;;5007411;28;20284;-53
2023/09/24 05:06:32;;;;;;;7.80;4.47;;;;;;;;;;5009080;28;20179;-52
2023/09/24 05:08:58;;;;;;;4.87;4.33;;;;;;;;;;5007155;28;20186;-53
2023/09/24 05:11:24;;;;;;;6.30;4.53;;;;;;;;;;5009484;28;20731;-53
2023/09/24 05:13:51;;;;;;;7.17;5.27;;;;;;;;;;5008906;28;20193;-52
2023/09/24 05:16:19;;;;;;;5.97;4.37;;;;;;;;;;5007696;28;20198;-52
2023/09/24 05:18:45;;;;;;;6.30;4.63;;;;;;;;;;5006687;28;20201;-50
2023/09/24 05:21:15;;;;;;;5.70;4.63;;;;;;;;;;5008169;28;20661;-48
2023/09/24 05:23:41;;;;;;;5.50;4.17;;;;;;;;;;5007695;28;20205;-46
2023/09/24 05:26:14;;;;;;;6.57;4.60;;;;;;;;;;4999834;28;20190;-46
2023/09/24 05:28:41;;;;;;;7.07;4.40;;;;;;;;;;5007828;28;20178;-47
2023/09/24 05:31:08;;;;;;;4.23;3.33;;;;;;;;;;4990152;28;20688;-50
2023/09/24 05:33:34;;;;;;;5.83;3.90;;;;;;;;;;4986064;28;20186;-46
2023/09/24 05:36:01;;;;;;;11.50;3.83;;;;;;;;;;5006663;28;20618;-47
2023/09/24 05:38:29;;;;;;;5.97;3.60;;;;;;;;;;4984959;28;20257;-47
2023/09/24 05:40:55;;;;;;;5.27;3.20;;;;;;;;;;5008434;28;20188;-52
2023/09/24 05:43:22;;;;;;;4.20;3.77;;;;;;;;;;5007146;28;20194;-46
2023/09/24 05:45:49;;;;;;;4.07;3.57;;;;;;;;;;5004641;28;20516;-49
2023/09/24 05:48:15;;;;;;;4.10;3.43;;;;;;;;;;5003988;28;20620;-47
2023/09/24 05:50:42;;;;;;;5.17;3.70;;;;;;;;;;4989127;28;20623;-46
2023/09/24 05:53:09;;;;;;;4.93;3.93;;;;;;;;;;5003915;28;20764;-46
2023/09/24 05:55:36;;;;;;;3.80;3.50;;;;;;;;;;5007536;28;20182;-46
2023/09/24 05:58:03;;;;;;;4.83;3.33;;;;;;;;;;5005003;28;20175;-47
2023/09/24 06:00:31;;;;;;;7.17;3.27;;;;;;;;;;5007033;28;20185;-44
2023/09/24 06:02:57;;;;;;;4.00;3.00;;;;;;;;;;5007973;28;20688;-46
2023/09/24 06:05:23;;;;;;;5.50;3.70;;;;;;;;;;5003277;28;20260;-48
2023/09/24 06:07:49;;;;;;;4.53;3.20;;;;;;;;;;5006117;28;20660;-47
2023/09/24 06:10:16;;;;;;;3.30;3.00;;;;;;;;;;5006370;28;20541;-48
2023/09/24 06:12:42;;;;;;;3.33;3.03;;;;;;;;;;4988584;28;20206;-47
2023/09/24 06:15:10;;;;;;;3.53;3.23;;;;;;;;;;5003186;28;20187;-46
2023/09/24 06:17:36;;;;;;;4.83;3.10;;;;;;;;;;5002147;28;20203;-48
2023/09/24 06:20:03;;;;;;;6.37;3.30;;;;;;;;;;5005875;28;20256;-48
2023/09/24 06:22:29;;;;;;;5.47;3.80;;;;;;;;;;4989959;28;20190;-50
2023/09/24 06:24:55;;;;;;;7.17;4.23;;;;;;;;;;5002471;28;20187;-49
2023/09/24 06:27:22;;;;;;;3.63;3.30;;;;;;;;;;5002141;28;20239;-47
2023/09/24 06:29:48;;;;;;;4.67;3.30;;;;;;;;;;4998713;28;20682;-48
2023/09/24 06:32:14;;;;;;;4.57;3.50;;;;;;;;;;5000161;28;20186;-47
2023/09/24 06:34:40;;;;;;;3.83;3.23;;;;;;;;;;4996491;28;20665;-47
2023/09/24 06:37:07;;;;;;;3.90;3.47;;;;;;;;;;5002138;28;20702;-52
2023/09/24 06:39:34;;;;;;;5.73;3.50;;;;;;;;;;5003404;28;20186;-54
2023/09/24 06:42:00;;;;;;;5.43;3.67;;;;;;;;;;5001128;28;20174;-52
2023/09/24 06:44:27;;;;;;;4.73;3.50;;;;;;;;;;5003493;28;20214;-53
2023/09/24 06:46:53;;;;;;;6.87;3.47;;;;;;;;;;5004837;28;20244;-53
2023/09/24 06:49:20;;;;;;;3.77;3.40;;;;;;;;;;5003086;28;20650;-50
2023/09/24 06:51:46;;;;;;;4.23;3.83;;;;;;;;;;4990010;28;20549;-54
2023/09/24 06:54:13;;;;;;;3.20;2.90;;;;;;;;;;5007304;28;20190;-53
2023/09/24 06:56:39;;;;;;;4.70;3.57;;;;;;;;;;5004686;28;20201;-53
2023/09/24 06:59:09;;;;;;;5.17;3.20;;;;;;;;;;5007011;28;20205;-54
2023/09/24 07:01:37;;;;;;;4.47;3.37;;;;;;;;;;5007404;28;20625;-51
2023/09/24 07:04:04;;;;;;;6.33;3.37;;;;;;;;;;5003978;28;20194;-51
2023/09/24 07:06:31;;;;;;;4.70;3.30;;;;;;;;;;5007406;28;20197;-52
2023/09/24 07:08:58;;;;;;;5.67;3.37;;;;;;;;;;4986462;28;20178;-52
2023/09/24 07:11:27;;;;;;;3.87;3.20;;;;;;;;;;5007903;28;20199;-51
2023/09/24 07:13:53;;;;;;;4.37;3.73;;;;;;;;;;4982087;28;20194;-51
2023/09/24 07:16:22;;;;;;;3.60;3.30;;;;;;;;;;5006783;28;20192;-52
2023/09/24 07:18:50;;;;;;;3.23;2.77;;;;;;;;;;5005968;28;20777;-52
2023/09/24 07:21:17;;;;;;;3.53;2.80;;;;;;;;;;4986804;28;20732;-53
2023/09/24 07:23:43;;;;;;;7.30;2.60;;;;;;;;;;5001524;28;20210;-54
2023/09/24 07:26:09;;;;;;;3.70;3.00;;;;;;;;;;5004687;28;20253;-53
2023/09/24 07:28:36;;;;;;;2.97;2.67;;;;;;;;;;5005453;28;20174;-53
2023/09/24 07:31:02;;;;;;;4.07;3.20;;;;;;;;;;5001593;28;20238;-53
2023/09/24 07:33:28;;;;;;;3.73;2.87;;;;;;;;;;5004545;28;20277;-54
2023/09/24 07:35:54;;;;;;;3.07;2.50;;;;;;;;;;5004609;28;20547;-54
2023/09/24 07:38:20;;;;;;;3.30;2.30;;;;;;;;;;5006182;28;20194;-53
2023/09/24 07:40:46;;;;;;;3.60;2.60;;;;;;;;;;5000351;28;20195;-55
2023/09/24 07:43:12;;;;;;;4.73;2.67;;;;;;;;;;5004795;28;20199;-52
2023/09/24 07:45:39;;;;;;;3.60;2.43;;;;;;;;;;5001274;28;20252;-54
2023/09/24 07:48:08;;;;;;;7.03;3.40;;;;;;;;;;5009500;28;20187;-53
2023/09/24 07:50:35;;;;;;;2.80;2.60;;;;;;;;;;5008155;28;20775;-53
2023/09/24 07:53:03;;;;;;;3.70;2.13;;;;;;;;;;5011116;28;20789;-53
2023/09/24 07:55:29;;;;;;;2.50;2.03;;;;;;;;;;5010088;28;20191;-53
2023/09/24 07:57:55;;;;;;;3.40;2.50;;;;;;;;;;5010524;28;20193;-56
2023/09/24 08:00:21;;;;;;;2.73;2.50;;;;;;;;;;5008915;28;20302;-53
2023/09/24 08:02:47;;;;;;;2.53;2.33;;;;;;;;;;5003573;28;20220;-53
2023/09/24 08:05:15;;;;;;;2.57;2.37;;;;;;;;;;5005891;28;20185;-53
2023/09/24 08:07:41;;;;;;;4.27;2.60;;;;;;;;;;5008066;28;20228;-53
2023/09/24 08:10:07;;;;;;;3.40;2.53;;;;;;;;;;5005954;28;20261;-53
2023/09/24 08:12:34;;;;;;;4.53;2.70;;;;;;;;;;4988197;28;20182;-53
2023/09/24 08:15:00;;;;;;;8.13;3.20;;;;;;;;;;5006972;28;20301;-54
2023/09/24 08:17:26;;;;;;;7.00;2.90;;;;;;;;;;5007250;28;20313;-53
2023/09/24 08:19:53;;;;;;;5.73;2.57;;;;;;;;;;5008062;28;20178;-54
2023/09/24 08:22:19;;;;;;;3.40;2.47;;;;;;;;;;5005346;28;20549;-53
2023/09/24 08:24:45;;;;;;;4.30;2.70;;;;;;;;;;5002270;28;20204;-53
2023/09/24 08:27:11;;;;;;;3.90;2.53;;;;;;;;;;5004872;28;20551;-53
2023/09/24 08:29:37;;;;;;;5.60;2.50;;;;;;;;;;5000685;28;20194;-53
2023/09/24 08:32:03;;;;;;;8.27;2.90;;;;;;;;;;5006600;28;20229;-53
2023/09/24 08:34:30;;;;;;;3.70;2.30;;;;;;;;;;4988954;28;20190;-53
2023/09/24 08:36:56;;;;;;;2.70;2.33;;;;;;;;;;5007985;28;20639;-53
2023/09/24 08:39:22;;;;;;;3.30;2.00;;;;;;;;;;4989862;28;20189;-53
2023/09/24 08:41:48;;;;;;;7.80;2.70;;;;;;;;;;5009830;28;20186;-54
2023/09/24 08:44:15;;;;;;;6.40;2.77;;;;;;;;;;5006150;28;20198;-53
2023/09/24 08:46:42;;;;;;;4.63;2.60;;;;;;;;;;5004807;28;20190;-53
2023/09/24 08:49:08;;;;;;;5.63;2.33;;;;;;;;;;5004751;28;20190;-53
2023/09/24 08:51:35;;;;;;;5.63;2.30;;;;;;;;;;5008511;28;20595;-53
2023/09/24 08:54:01;;;;;;;2.30;2.10;;;;;;;;;;4982808;28;20639;-53
2023/09/24 08:56:28;;;;;;;2.40;2.20;;;;;;;;;;5005531;28;20179;-54
2023/09/24 08:58:55;;;;;;;4.30;2.10;;;;;;;;;;5005042;28;20178;-53
2023/09/24 09:01:21;;;;;;;4.23;2.10;;;;;;;;;;5003973;28;20182;-54
2023/09/24 09:03:48;;;;;;;2.43;2.17;;;;;;;;;;5007511;28;20217;-54
2023/09/24 09:06:34;;;;;;;5.40;3.57;;;;;;;;;;5007173;28;20170;-54
2023/09/24 09:09:00;;;;;;;2.40;2.20;;;;;;;;;;5006203;28;20288;-53
2023/09/24 09:11:40;;;;;;;2.10;1.90;;;;;;;;;;5006992;28;20557;-53
2023/09/24 09:14:06;;;;;;;3.87;2.00;;;;;;;;;;5002353;28;20584;-53
2023/09/24 09:16:33;;;;;;;4.97;2.23;;;;;;;;;;5004543;28;20184;-53
2023/09/24 09:19:00;;;;;;;8.07;2.40;;;;;;;;;;5003883;28;20272;-54
2023/09/24 09:21:26;;;;;;;2.30;2.03;;;;;;;;;;5004239;28;20202;-53
2023/09/24 09:23:52;;;;;;;3.20;2.13;;;;;;;;;;5007157;28;20692;-53
2023/09/24 09:26:18;;;;;;;5.07;2.33;;;;;;;;;;5007918;28;20640;-53
2023/09/24 09:28:44;;;;;;;4.13;2.07;;;;;;;;;;5005159;28;20183;-52
2023/09/24 09:31:11;;;;;;;2.20;2.00;;;;;;;;;;5007039;28;20238;-53
2023/09/24 09:33:39;;;;;;;3.07;1.77;;;;;;;;;;5007165;28;20713;-53
2023/09/24 09:36:20;;;;;;;2.33;1.80;;;;;;;;;;5004775;28;20255;-55
2023/09/24 09:38:46;;;;;;;4.83;2.10;;;;;;;;;;5000347;28;20186;-55
2023/09/24 09:41:12;;;;;;;3.93;2.30;;;;;;;;;;5008051;28;20262;-54
2023/09/24 09:43:39;;;;;;;3.20;2.33;;;;;;;;;;5008561;28;20275;-54
2023/09/24 09:46:07;;;;;;;3.73;2.13;;;;;;;;;;5002688;28;20190;-54
2023/09/24 09:48:34;;;;;;;5.50;1.97;;;;;;;;;;5006679;28;20188;-55
2023/09/24 09:51:03;;;;;;;4.87;2.10;;;;;;;;;;5005284;28;20303;-55
2023/09/24 09:53:34;;;;;;;2.20;1.80;;;;;;;;;;5004841;28;21526;-54
2023/09/24 09:56:04;;;;;;;3.27;2.00;;;;;;;;;;5008100;28;20271;-55
2023/09/24 09:58:32;;;;;;;3.27;2.00;;;;;;;;;;5006828;28;20631;-55
2023/09/24 10:01:00;;;;;;;2.33;2.00;;;;;;;;;;5006841;28;20639;-55
2023/09/24 10:03:27;;;;;;;7.17;2.40;;;;;;;;;;5005570;28;20242;-54
2023/09/24 10:05:54;;;;;;;3.77;2.07;;;;;;;;;;5004698;28;20184;-51
2023/09/24 10:08:39;;;;;;;5.43;2.43;;;;;;;;;;5006916;28;20187;-52
2023/09/24 10:11:07;;;;;;;3.70;2.00;;;;;;;;;;4991971;28;20261;-53
2023/09/24 10:13:43;;;;;;;3.97;2.40;;;;;;;;;;5008102;28;20399;-54
2023/09/24 10:16:29;;;;;;;2.93;2.30;;;;;;;;;;5006802;28;20192;-54
2023/09/24 10:19:06;;;;;;;3.93;2.57;;;;;;;;;;5002945;28;20190;-53
2023/09/24 10:21:35;;;;;;;2.93;2.10;;;;;;;;;;4999187;28;20276;-55
2023/09/24 10:24:05;;;;;;;7.13;2.60;;;;;;;;;;5007037;28;20507;-55
2023/09/24 10:26:50;;;;;;;4.53;2.10;;;;;;;;;;5005684;28;20181;-54
2023/09/24 10:29:20;;;;;;;3.43;2.60;;;;;;;;;;5005685;28;20427;-53
2023/09/24 10:32:04;;;;;;;4.00;2.67;;;;;;;;;;5004483;28;20235;-53
2023/09/24 10:34:49;;;;;;;5.83;2.57;;;;;;;;;;5005937;28;20178;-53
2023/09/24 10:37:15;;;;;;;2.47;1.87;;;;;;;;;;4980827;28;20193;-54
2023/09/24 10:42:27;;;;;;;4.47;2.20;;;;;;;;;;5003367;28;20657;-54
2023/09/24 10:45:09;;;;;;;6.17;2.60;;;;;;;;;;5005218;28;20244;-54
2023/09/24 10:47:41;;;;;;;3.83;1.90;;;;;;;;;;5003355;28;20542;-54
2023/09/24 10:50:17;;;;;;;5.33;2.17;;;;;;;;;;4999011;28;20178;-54
2023/09/24 10:52:50;;;;;;;2.97;1.93;;;;;;;;;;5005966;28;20179;-54
2023/09/24 10:55:17;;;;;;;3.13;2.10;;;;;;;;;;5005892;28;20197;-54
2023/09/24 10:57:46;;;;;;;3.30;2.07;;;;;;;;;;5005020;28;20194;-55
2023/09/24 11:00:16;;;;;;;5.13;2.30;;;;;;;;;;4988329;28;20182;-54
2023/09/24 11:02:43;;;;;;;8.03;2.80;;;;;;;;;;5004900;28;20195;-54
2023/09/24 11:05:09;;;;;;;2.50;2.17;;;;;;;;;;5005176;28;20197;-54
2023/09/24 11:07:36;;;;;;;3.03;1.90;;;;;;;;;;4985547;28;20641;-55
2023/09/24 11:10:02;;;;;;;3.13;1.90;;;;;;;;;;5002405;28;20656;-54
2023/09/24 11:12:29;;;;;;;2.73;1.53;;;;;;;;;;5006258;28;20210;-54
2023/09/24 11:14:56;;;;;;;6.97;1.90;;;;;;;;;;4985832;28;20192;-54
2023/09/24 11:17:22;;;;;;;2.23;1.73;;;;;;;;;;5005879;28;20182;-54
2023/09/24 11:19:49;;;;;;;2.83;1.70;;;;;;;;;;5002110;28;20202;-54
2023/09/24 11:22:19;;;;;;;2.10;1.80;;;;;;;;;;5001367;28;20190;-54
2023/09/24 11:24:46;;;;;;;2.20;2.00;;;;;;;;;;5004559;28;20622;-53
2023/09/24 11:27:19;;;;;;;26.00;21.03;;;;;;;;;;5005774;28;20192;-53
2023/09/24 11:30:02;;;;;;;44.37;39.87;;;;;;;;;;4987322;28;20196;-56
2023/09/24 11:32:28;;;;;;;67.30;60.87;;;;;;;;;;5009608;28;20296;-53
2023/09/24 11:35:14;;;;;;;54.70;49.73;;;;;;;;;;5005993;28;20190;-54
2023/09/24 11:37:47;;;;;;;23.30;21.30;;;;;;;;;;5008326;28;20213;-54
2023/09/24 11:40:27;;;;;;;8.63;7.83;;;;;;;;;;5006692;28;20183;-53
2023/09/24 11:43:13;;;;;;;23.23;20.80;;;;;;;;;;5007022;28;20218;-50
2023/09/24 11:45:50;;;;;;;10.97;9.30;;;;;;;;;;5006120;28;20185;-55
2023/09/24 11:48:18;;;;;;;14.87;9.43;;;;;;;;;;5006703;28;20251;-54
2023/09/24 11:50:45;;;;;;;13.10;9.57;;;;;;;;;;5009200;28;20182;-54
2023/09/24 11:53:11;;;;;;;11.67;9.03;;;;;;;;;;5008703;28;20236;-55
2023/09/24 11:55:37;;;;;;;9.23;7.65;;;;;;;;;;5007856;28;20431;-54
2023/09/24 11:58:08;;;;;;;10.03;8.70;;;;;;;;;;5010152;28;20186;-54
2023/09/24 12:00:38;;;;;;;8.20;6.93;;;;;;;;;;5008920;28;20249;-55
2023/09/24 12:03:05;;;;;;;5.87;5.23;;;;;;;;;;5010133;28;20206;-54
2023/09/24 12:05:34;;;;;;;7.20;5.90;;;;;;;;;;5008917;28;20545;-55
2023/09/24 12:08:01;;;;;;;6.00;5.40;;;;;;;;;;5009643;28;20166;-57
2023/09/24 12:10:28;;;;;;;6.13;4.57;;;;;;;;;;5008587;28;20413;-54
2023/09/24 12:12:54;;;;;;;7.53;4.97;;;;;;;;;;5010695;28;20191;-55
2023/09/24 12:15:20;;;;;;;4.50;3.93;;;;;;;;;;5003761;28;20190;-54
2023/09/24 12:17:47;;;;;;;4.03;3.73;;;;;;;;;;5010806;28;20213;-54
2023/09/24 12:20:13;;;;;;;4.90;4.40;;;;;;;;;;5006221;28;20810;-54
2023/09/24 12:22:43;;;;;;;5.70;3.73;;;;;;;;;;5009217;28;20182;-54
2023/09/24 12:25:18;;;;;;;5.70;3.80;;;;;;;;;;5009686;28;20179;-54
2023/09/24 12:27:45;;;;;;;2.93;2.57;;;;;;;;;;4998863;28;20255;-55
2023/09/24 12:30:12;;;;;;;3.20;2.90;;;;;;;;;;5000993;28;20231;-55
2023/09/24 12:32:42;;;;;;;3.10;2.80;;;;;;;;;;4991730;28;20219;-54
2023/09/24 12:35:13;;;;;;;2.77;2.57;;;;;;;;;;4999021;28;20200;-55
2023/09/24 12:37:40;;;;;;;3.23;2.70;;;;;;;;;;5006388;28;20179;-55
2023/09/24 12:40:08;;;;;;;3.17;2.57;;;;;;;;;;5004179;28;20187;-54
2023/09/24 12:42:35;;;;;;;2.60;2.40;;;;;;;;;;5007594;28;20187;-54
2023/09/24 12:45:03;;;;;;;2.70;2.50;;;;;;;;;;5009465;28;20185;-54
2023/09/24 12:47:32;;;;;;;2.53;2.30;;;;;;;;;;5010022;28;20183;-55
2023/09/24 12:49:59;;;;;;;3.10;2.80;;;;;;;;;;5006752;28;20210;-55
2023/09/24 12:52:25;;;;;;;2.43;2.23;;;;;;;;;;5009934;28;20229;-55
2023/09/24 12:54:51;;;;;;;3.13;2.43;;;;;;;;;;5009414;28;20202;-55
2023/09/24 12:57:18;;;;;;;3.27;2.27;;;;;;;;;;5009753;28;20190;-55
2023/09/24 12:59:44;;;;;;;2.70;2.40;;;;;;;;;;5007785;28;20245;-55
2023/09/24 13:02:10;;;;;;;2.73;2.43;;;;;;;;;;5010423;28;20186;-55
2023/09/24 13:04:37;;;;;;;2.43;2.23;;;;;;;;;;5007952;28;20206;-55
2023/09/24 13:07:03;;;;;;;2.87;2.50;;;;;;;;;;5009178;28;20654;-55
2023/09/24 13:09:29;;;;;;;5.43;2.40;;;;;;;;;;4990485;28;20272;-55
2023/09/24 13:11:58;;;;;;;2.40;2.20;;;;;;;;;;5009703;28;20186;-54
2023/09/24 13:14:24;;;;;;;2.30;2.10;;;;;;;;;;5008513;28;20242;-55
2023/09/24 13:16:52;;;;;;;2.80;2.50;;;;;;;;;;5008312;28;20194;-55
2023/09/24 13:19:18;;;;;;;2.30;2.10;;;;;;;;;;5007363;28;20194;-55
2023/09/24 13:21:44;;;;;;;3.13;2.47;;;;;;;;;;5008970;28;20222;-55
2023/09/24 13:24:10;;;;;;;3.10;2.30;;;;;;;;;;5008222;28;20214;-55
2023/09/24 13:26:39;;;;;;;2.13;1.93;;;;;;;;;;5009721;28;20573;-55
2023/09/24 13:29:09;;;;;;;2.20;2.00;;;;;;;;;;5008051;28;20190;-55
2023/09/24 13:31:35;;;;;;;2.27;2.03;;;;;;;;;;5007798;28;20236;-54
2023/09/24 13:34:05;;;;;;;2.43;2.10;;;;;;;;;;5006693;28;20179;-55
2023/09/24 13:36:32;;;;;;;3.27;2.80;;;;;;;;;;5009035;28;20290;-55
2023/09/24 13:39:01;;;;;;;1.87;1.77;;;;;;;;;;5008090;28;20633;-55
2023/09/24 13:41:27;;;;;;;3.20;2.07;;;;;;;;;;4991281;28;20188;-55
2023/09/24 13:43:54;;;;;;;3.37;2.30;;;;;;;;;;5008401;28;20290;-55
2023/09/24 13:46:20;;;;;;;2.47;1.90;;;;;;;;;;5007325;28;20539;-55
2023/09/24 13:48:47;;;;;;;2.73;2.53;;;;;;;;;;5007366;28;20162;-55
2023/09/24 13:51:13;;;;;;;3.03;1.83;;;;;;;;;;5008639;28;20190;-55
2023/09/24 13:53:40;;;;;;;1.93;1.80;;;;;;;;;;5007940;28;20191;-55
2023/09/24 13:56:12;;;;;;;2.37;1.93;;;;;;;;;;5008916;28;20185;-55
2023/09/24 13:58:39;;;;;;;3.87;2.37;;;;;;;;;;5009242;28;20198;-55
2023/09/24 14:01:05;;;;;;;2.37;2.17;;;;;;;;;;5006359;28;20220;-55
2023/09/24 14:03:31;;;;;;;1.97;1.80;;;;;;;;;;5007536;28;20224;-56
2023/09/24 14:05:58;;;;;;;2.53;1.90;;;;;;;;;;5007734;28;20176;-55
2023/09/24 14:13:54;;;;;;;3.10;2.10;;;;;;;;;;5007924;28;20223;-55
2023/09/24 14:16:21;;;;;;;1.80;1.70;;;;;;;;;;5001809;28;20548;-54
2023/09/24 14:18:47;;;;;;;2.77;2.03;;;;;;;;;;5006734;28;20227;-54
2023/09/24 14:21:16;;;;;;;2.53;2.33;;;;;;;;;;5008066;28;20690;-54
2023/09/24 14:23:42;;;;;;;2.00;1.80;;;;;;;;;;5006240;28;20287;-54
2023/09/24 14:26:09;;;;;;;2.43;1.90;;;;;;;;;;5008113;28;20182;-55
2023/09/24 14:28:35;;;;;;;1.90;1.73;;;;;;;;;;5007102;28;20191;-54
2023/09/24 14:31:05;;;;;;;1.60;1.50;;;;;;;;;;5007117;28;20572;-54
2023/09/24 14:33:31;;;;;;;1.73;1.60;;;;;;;;;;5006888;28;20239;-54
2023/09/24 14:35:58;;;;;;;1.97;1.77;;;;;;;;;;5005606;28;20214;-54
2023/09/24 14:38:25;;;;;;;2.03;1.83;;;;;;;;;;5005869;28;20287;-54
2023/09/24 14:40:51;;;;;;;1.93;1.83;;;;;;;;;;5007953;28;20247;-54
2023/09/24 14:43:17;;;;;;;1.77;1.50;;;;;;;;;;5007358;28;20217;-55
2023/09/24 14:45:44;;;;;;;2.10;1.90;;;;;;;;;;4989457;28;20217;-55
2023/09/24 14:48:10;;;;;;;2.50;2.20;;;;;;;;;;4999035;28;20294;-54
2023/09/24 14:50:40;;;;;;;1.73;1.57;;;;;;;;;;5005654;28;20269;-54
2023/09/24 14:53:07;;;;;;;2.00;1.80;;;;;;;;;;5007133;28;20204;-54
2023/09/24 14:55:40;;;;;;;2.80;1.93;;;;;;;;;;5007493;28;20260;-54